Time;durP1;ratioP1;P1;durP2;ratioP2;P2;SDS_P1;SDS_P2;PMS_P1;PMS_P2;Temp;Humidity;BMP_temperature;BMP_pressure;BME280_temperature;BME280_humidity;BME280_pressure;Samples;Min_cycle;Max_cycle;Signal;HPM_P1;HPM_P2
2021/07/05 00:01:11;;;;;;;7.07;4.13;;;18.50;99.90;;;;;;5027620;28;20091;-76
2021/07/05 00:03:37;;;;;;;5.45;3.53;;;18.50;99.90;;;;;;5026924;28;20071;-75
2021/07/05 00:06:03;;;;;;;5.60;3.05;;;18.50;99.90;;;;;;5027398;28;20061;-76
2021/07/05 00:08:29;;;;;;;4.20;3.55;;;18.50;99.90;;;;;;5028296;28;20079;-77
2021/07/05 00:10:55;;;;;;;4.45;2.63;;;18.50;99.90;;;;;;5028579;28;20469;-76
2021/07/05 00:13:21;;;;;;;4.20;3.42;;;18.50;99.90;;;;;;5028973;28;20779;-77
2021/07/05 00:15:47;;;;;;;4.57;2.78;;;18.50;99.90;;;;;;5027444;28;20026;-76
2021/07/05 00:18:12;;;;;;;9.10;3.13;;;18.50;99.90;;;;;;5030165;28;20059;-77
2021/07/05 00:20:45;;;;;;;6.28;3.47;;;18.50;99.90;;;;;;5024734;28;20025;-75
2021/07/05 00:23:11;;;;;;;;;;;18.50;99.90;;;;;;5029533;28;20017;-76
2021/07/05 00:25:37;;;;;;;6.03;2.90;;;18.50;99.90;;;;;;5028997;28;19967;-75
2021/07/05 00:28:03;;;;;;;3.03;2.65;;;18.50;99.90;;;;;;5029143;28;20064;-75
2021/07/05 00:30:30;;;;;;;3.30;2.65;;;18.50;99.90;;;;;;5027034;28;20500;-76
2021/07/05 00:32:55;;;;;;;4.88;2.88;;;18.60;99.90;;;;;;5023229;28;20165;-76
2021/07/05 00:35:22;;;;;;;3.08;2.63;;;18.50;99.90;;;;;;5031308;28;20037;-76
2021/07/05 00:37:48;;;;;;;6.10;2.95;;;18.50;99.90;;;;;;5034722;28;20083;-76
2021/07/05 00:40:15;;;;;;;5.15;2.92;;;18.40;99.90;;;;;;5029248;28;20022;-76
2021/07/05 00:42:42;;;;;;;4.25;2.88;;;18.40;99.90;;;;;;5028494;28;20018;-76
2021/07/05 00:45:09;;;;;;;4.68;2.67;;;18.40;99.90;;;;;;5027712;28;20022;-77
2021/07/05 00:47:35;;;;;;;5.38;2.95;;;18.40;99.90;;;;;;5023768;28;20040;-75
2021/07/05 00:50:01;;;;;;;8.27;3.00;;;18.40;99.90;;;;;;5028131;28;20092;-77
2021/07/05 00:52:28;;;;;;;4.47;2.45;;;18.40;99.90;;;;;;5023665;28;20076;-71
2021/07/05 00:54:54;;;;;;;3.10;2.65;;;18.30;99.90;;;;;;5029760;28;20038;-76
2021/07/05 00:57:20;;;;;;;3.17;2.88;;;18.30;99.90;;;;;;5024899;28;20032;-77
2021/07/05 00:59:53;;;;;;;5.63;2.92;;;18.30;99.90;;;;;;5027088;28;20047;-76
2021/07/05 01:02:21;;;;;;;7.90;2.67;;;18.40;99.90;;;;;;5028129;28;20021;-73
2021/07/05 01:04:47;;;;;;;5.30;2.60;;;18.30;99.90;;;;;;5028675;28;20100;-74
2021/07/05 01:07:13;;;;;;;7.47;2.78;;;18.40;99.90;;;;;;5025702;28;20108;-73
2021/07/05 01:09:40;;;;;;;4.70;2.50;;;18.40;99.90;;;;;;5028406;28;20021;-76
2021/07/05 01:12:07;;;;;;;4.53;2.90;;;18.40;99.90;;;;;;5028993;28;20032;-74
2021/07/05 01:14:33;;;;;;;3.75;2.13;;;18.40;99.90;;;;;;5025815;28;20103;-74
2021/07/05 01:16:59;;;;;;;5.15;2.75;;;18.40;99.90;;;;;;5026441;28;20025;-75
2021/07/05 01:19:26;;;;;;;4.25;2.38;;;18.40;99.90;;;;;;5025881;28;20018;-73
2021/07/05 01:21:53;;;;;;;4.82;3.03;;;18.40;99.90;;;;;;5026941;28;20033;-74
2021/07/05 01:24:19;;;;;;;5.63;2.63;;;18.40;99.90;;;;;;5025997;28;20128;-74
2021/07/05 01:26:44;;;;;;;4.78;3.17;;;18.40;99.90;;;;;;5026249;28;20117;-71
2021/07/05 01:29:10;;;;;;;4.90;3.00;;;18.40;99.90;;;;;;5029564;28;20025;-75
2021/07/05 01:31:36;;;;;;;5.10;3.38;;;18.50;99.90;;;;;;5030213;28;20026;-75
2021/07/05 01:34:03;;;;;;;3.25;2.92;;;18.50;99.90;;;;;;5025679;28;20565;-74
2021/07/05 01:36:29;;;;;;;7.78;3.80;;;18.50;99.90;;;;;;5027759;28;20032;-72
2021/07/05 01:38:56;;;;;;;4.57;3.13;;;18.50;99.90;;;;;;5029662;28;20053;-75
2021/07/05 01:41:22;;;;;;;9.15;4.57;;;18.50;99.90;;;;;;5028852;28;20100;-75
2021/07/05 01:43:48;;;;;;;4.95;3.95;;;18.50;99.90;;;;;;5029723;28;20045;-75
2021/07/05 01:46:14;;;;;;;6.57;4.65;;;18.60;99.90;;;;;;5026214;28;20405;-76
2021/07/05 01:48:41;;;;;;;7.28;5.25;;;18.50;99.90;;;;;;5021737;28;20448;-74
2021/07/05 01:51:08;;;;;;;9.32;5.13;;;18.50;99.90;;;;;;5025487;28;20470;-72
2021/07/05 01:53:34;;;;;;;11.02;6.28;;;18.40;99.90;;;;;;5024458;28;20481;-75
2021/07/05 01:56:00;;;;;;;7.93;5.93;;;18.50;99.90;;;;;;5027117;28;20033;-75
2021/07/05 01:58:26;;;;;;;10.98;7.22;;;18.50;99.90;;;;;;5030540;28;20044;-74
2021/07/05 02:00:53;;;;;;;9.13;5.75;;;18.40;99.90;;;;;;5026597;28;20048;-76
2021/07/05 02:03:19;;;;;;;10.75;5.95;;;18.20;99.90;;;;;;5025512;28;20044;-75
2021/07/05 02:05:46;;;;;;;10.68;5.95;;;18.10;99.90;;;;;;5021199;28;20029;-75
2021/07/05 02:08:14;;;;;;;10.68;4.80;;;18.00;99.90;;;;;;5025135;28;20480;-73
2021/07/05 02:10:41;;;;;;;9.57;4.75;;;18.00;99.90;;;;;;5023757;28;20105;-74
2021/07/05 02:13:18;;;;;;;10.23;5.32;;;17.90;99.90;;;;;;5025680;28;20036;-76
2021/07/05 02:15:45;;;;;;;8.98;4.53;;;17.90;99.90;;;;;;5020792;28;20036;-75
2021/07/05 02:18:11;;;;;;;12.13;4.70;;;17.80;99.90;;;;;;5034518;28;20071;-73
2021/07/05 02:20:37;;;;;;;8.90;5.20;;;17.80;99.90;;;;;;5025762;28;20382;-75
2021/07/05 02:23:06;;;;;;;10.30;4.22;;;17.80;99.90;;;;;;5025915;28;20049;-74
2021/07/05 02:25:33;;;;;;;8.93;3.97;;;17.70;99.90;;;;;;5026758;28;20474;-73
2021/07/05 02:28:01;;;;;;;9.82;4.53;;;17.60;99.90;;;;;;5022598;28;20405;-75
2021/07/05 02:30:29;;;;;;;8.50;4.00;;;17.60;99.90;;;;;;5022828;28;20048;-74
2021/07/05 02:32:58;;;;;;;7.45;4.22;;;17.50;99.90;;;;;;5026467;28;20112;-73
2021/07/05 02:35:27;;;;;;;12.88;5.57;;;17.40;99.90;;;;;;5026401;28;20033;-74
2021/07/05 02:37:54;;;;;;;13.43;6.00;;;17.20;99.90;;;;;;5024646;28;20021;-73
2021/07/05 02:40:24;;;;;;;10.93;4.93;;;17.40;99.90;;;;;;5029405;28;20019;-74
2021/07/05 02:42:50;;;;;;;10.98;5.38;;;17.40;99.90;;;;;;5029523;28;20053;-73
2021/07/05 02:45:23;;;;;;;11.02;5.78;;;17.30;99.90;;;;;;5026816;28;20129;-73
2021/07/05 02:47:58;;;;;;;13.75;5.97;;;17.40;99.90;;;;;;5025376;28;20025;-72
2021/07/05 02:50:23;;;;;;;16.15;5.88;;;17.50;99.90;;;;;;5023161;28;20096;-72
2021/07/05 02:52:50;;;;;;;12.52;5.63;;;17.50;99.90;;;;;;5026986;28;20512;-74
2021/07/05 02:55:16;;;;;;;13.20;5.80;;;17.60;99.90;;;;;;5028103;28;20138;-72
2021/07/05 02:57:45;;;;;;;12.20;5.95;;;17.70;99.90;;;;;;5030490;28;20458;-73
2021/07/05 03:00:17;;;;;;;13.75;5.57;;;17.70;99.90;;;;;;5027711;28;20500;-73
2021/07/05 03:02:44;;;;;;;11.02;5.00;;;17.70;99.90;;;;;;5030243;28;20025;-73
2021/07/05 03:05:12;;;;;;;13.63;5.95;;;17.70;99.90;;;;;;5031017;28;20025;-73
2021/07/05 03:07:38;;;;;;;13.65;6.90;;;17.80;99.90;;;;;;5028718;28;20033;-73
2021/07/05 03:10:07;;;;;;;15.25;6.45;;;17.80;99.90;;;;;;5029707;28;20057;-73
2021/07/05 03:12:33;;;;;;;15.75;7.32;;;17.80;99.90;;;;;;5031344;28;20025;-73
2021/07/05 03:14:58;;;;;;;15.73;7.03;;;17.80;99.90;;;;;;5027643;28;20436;-73
2021/07/05 03:17:24;;;;;;;13.65;7.70;;;17.80;99.90;;;;;;5032161;28;20096;-74
2021/07/05 03:19:50;;;;;;;11.50;6.32;;;17.80;99.90;;;;;;5047674;28;20051;-73
2021/07/05 03:22:17;;;;;;;16.63;6.78;;;17.80;99.90;;;;;;5032941;28;20025;-73
2021/07/05 03:24:43;;;;;;;14.88;7.15;;;17.80;99.90;;;;;;5025672;28;20148;-73
2021/07/05 03:27:10;;;;;;;15.48;7.15;;;17.80;99.90;;;;;;5031745;28;20049;-73
2021/07/05 03:29:36;;;;;;;16.23;7.35;;;17.90;99.90;;;;;;5026694;28;20040;-74
2021/07/05 03:32:03;;;;;;;17.58;7.00;;;17.90;99.90;;;;;;5030568;28;20112;-73
2021/07/05 03:34:29;;;;;;;16.00;6.80;;;17.80;99.90;;;;;;5032134;28;20046;-73
2021/07/05 03:36:55;;;;;;;22.40;8.98;;;17.80;99.90;;;;;;5030795;28;20067;-73
2021/07/05 03:39:22;;;;;;;15.82;6.80;;;17.80;99.90;;;;;;5033725;28;20036;-73
2021/07/05 03:41:48;;;;;;;16.42;7.88;;;17.80;99.90;;;;;;5027545;28;20030;-73
2021/07/05 03:44:14;;;;;;;13.55;7.60;;;17.80;99.90;;;;;;5029672;28;20028;-73
2021/07/05 03:46:40;;;;;;;17.90;7.55;;;17.70;99.90;;;;;;5029671;28;20021;-73
2021/07/05 03:49:05;;;;;;;11.05;6.45;;;17.70;99.90;;;;;;5031151;28;20382;-74
2021/07/05 03:51:31;;;;;;;15.25;6.63;;;17.80;99.90;;;;;;5032083;28;20034;-72
2021/07/05 03:53:57;;;;;;;19.30;7.13;;;17.80;99.90;;;;;;5028445;28;20711;-73
2021/07/05 03:56:23;;;;;;;14.40;6.18;;;17.80;99.90;;;;;;5028881;28;20033;-74
2021/07/05 03:58:49;;;;;;;16.92;7.38;;;17.70;99.90;;;;;;5031649;28;20022;-74
2021/07/05 04:01:14;;;;;;;14.15;6.13;;;17.70;99.90;;;;;;5046627;28;20490;-74
2021/07/05 04:03:40;;;;;;;18.63;8.13;;;17.70;99.90;;;;;;5027992;28;20117;-72
2021/07/05 04:06:06;;;;;;;14.30;6.95;;;17.70;99.90;;;;;;5031356;28;20025;-74
2021/07/05 04:08:34;;;;;;;14.60;6.18;;;17.70;99.90;;;;;;5032321;28;20029;-73
2021/07/05 04:11:00;;;;;;;12.23;6.38;;;17.70;99.90;;;;;;5029775;28;20025;-73
2021/07/05 04:13:28;;;;;;;20.65;6.95;;;17.50;99.90;;;;;;5031368;28;20374;-74
2021/07/05 04:15:54;;;;;;;13.27;6.05;;;17.30;99.90;;;;;;5028003;28;20033;-72
2021/07/05 04:18:19;;;;;;;18.05;6.38;;;17.30;99.90;;;;;;5027401;28;20040;-73
2021/07/05 04:20:46;;;;;;;11.30;5.68;;;17.40;99.90;;;;;;5032943;28;20029;-72
2021/07/05 04:23:11;;;;;;;11.95;6.40;;;17.30;99.90;;;;;;5031680;28;20029;-71
2021/07/05 04:25:37;;;;;;;14.35;6.20;;;17.40;99.90;;;;;;5031030;28;20017;-74
2021/07/05 04:28:04;;;;;;;9.35;5.65;;;17.30;99.90;;;;;;5026083;28;20428;-72
2021/07/05 04:30:30;;;;;;;13.10;5.25;;;17.10;99.90;;;;;;5025695;28;20053;-73
2021/07/05 04:32:57;;;;;;;13.15;6.07;;;17.10;99.90;;;;;;5032758;28;20029;-72
2021/07/05 04:35:23;;;;;;;8.40;5.40;;;16.90;99.90;;;;;;5030159;28;20048;-73
2021/07/05 04:37:51;;;;;;;17.00;6.22;;;16.90;99.90;;;;;;5028470;28;20022;-73
2021/07/05 04:40:26;;;;;;;8.63;5.30;;;17.00;99.90;;;;;;5030445;28;20049;-73
2021/07/05 04:42:52;;;;;;;9.60;5.35;;;17.00;99.90;;;;;;5030874;28;20048;-74
2021/07/05 04:45:21;;;;;;;8.73;5.45;;;17.20;99.90;;;;;;5023835;28;20025;-74
2021/07/05 04:47:47;;;;;;;12.50;5.43;;;16.90;99.90;;;;;;5027805;28;20037;-72
2021/07/05 04:50:15;;;;;;;9.98;5.30;;;17.00;99.90;;;;;;5030807;28;20025;-72
2021/07/05 04:52:41;;;;;;;10.07;5.10;;;16.90;99.90;;;;;;5031295;28;20006;-73
2021/07/05 04:55:09;;;;;;;10.27;5.20;;;17.00;99.90;;;;;;5030203;28;20029;-73
2021/07/05 04:57:36;;;;;;;15.68;5.72;;;16.80;99.90;;;;;;5025508;28;20056;-72
2021/07/05 05:00:05;;;;;;;9.07;4.85;;;16.80;99.90;;;;;;5025722;28;20100;-74
2021/07/05 05:02:30;;;;;;;12.10;5.72;;;16.80;99.90;;;;;;5029872;28;20026;-72
2021/07/05 05:04:56;;;;;;;6.50;5.15;;;16.90;99.90;;;;;;5029811;28;20036;-72
2021/07/05 05:07:21;;;;;;;10.52;5.40;;;16.90;99.90;;;;;;5027981;28;20466;-73
2021/07/05 05:09:47;;;;;;;12.48;5.50;;;16.90;99.90;;;;;;5029802;28;20059;-72
2021/07/05 05:12:13;;;;;;;7.03;4.50;;;16.90;99.90;;;;;;5031100;28;20367;-71
2021/07/05 05:14:38;;;;;;;10.30;5.80;;;17.00;99.90;;;;;;5026349;28;20034;-73
2021/07/05 05:17:05;;;;;;;7.13;4.93;;;17.00;99.90;;;;;;5026965;28;20026;-73
2021/07/05 05:19:30;;;;;;;9.55;4.90;;;17.10;99.90;;;;;;5027574;28;20477;-73
2021/07/05 05:21:56;;;;;;;8.25;5.32;;;17.30;99.90;;;;;;5032294;28;20037;-74
2021/07/05 05:24:22;;;;;;;6.93;5.80;;;17.30;99.90;;;;;;5028145;28;20018;-73
2021/07/05 05:26:48;;;;;;;11.85;5.40;;;17.30;99.90;;;;;;5029476;28;20052;-71
2021/07/05 05:29:14;;;;;;;10.38;5.88;;;17.40;99.90;;;;;;5026227;28;20526;-71
2021/07/05 05:31:39;;;;;;;12.57;5.65;;;17.40;99.90;;;;;;5029986;28;20030;-73
2021/07/05 05:34:05;;;;;;;10.15;4.93;;;17.40;99.90;;;;;;5029154;28;20038;-73
2021/07/05 05:36:31;;;;;;;10.18;5.55;;;17.50;99.90;;;;;;5030071;28;20108;-74
2021/07/05 05:38:57;;;;;;;9.32;5.60;;;17.60;99.90;;;;;;5028675;28;20025;-73
2021/07/05 05:41:22;;;;;;;9.80;5.65;;;17.60;99.90;;;;;;5032592;28;20033;-74
2021/07/05 05:43:48;;;;;;;7.88;4.00;;;17.60;99.90;;;;;;5026879;28;20056;-74
2021/07/05 05:46:17;;;;;;;7.30;4.72;;;17.60;99.90;;;;;;5031688;28;20045;-73
2021/07/05 05:48:46;;;;;;;11.15;4.93;;;17.70;99.90;;;;;;5025546;28;20604;-73
2021/07/05 05:51:11;;;;;;;8.82;5.00;;;17.70;99.90;;;;;;5026475;28;20033;-73
2021/07/05 05:53:37;;;;;;;9.93;5.45;;;17.70;99.90;;;;;;5030861;28;20437;-74
2021/07/05 05:56:03;;;;;;;10.95;5.72;;;17.70;99.90;;;;;;5029733;28;20386;-73
2021/07/05 05:58:34;;;;;;;8.30;5.40;;;17.70;99.90;;;;;;5039656;28;20028;-74
2021/07/05 06:01:00;;;;;;;11.50;5.20;;;17.70;99.90;;;;;;5029417;28;20104;-73
2021/07/05 06:03:26;;;;;;;8.30;5.38;;;17.70;99.90;;;;;;5029300;28;20515;-71
2021/07/05 06:05:51;;;;;;;11.85;4.90;;;17.80;99.90;;;;;;5026662;28;20033;-71
2021/07/05 06:08:17;;;;;;;10.60;5.15;;;17.70;99.90;;;;;;5030128;28;20057;-70
2021/07/05 06:10:43;;;;;;;10.63;5.07;;;17.80;99.90;;;;;;5026593;28;20057;-70
2021/07/05 06:13:08;;;;;;;10.50;5.93;;;17.80;99.90;;;;;;5028211;28;20064;-72
2021/07/05 06:15:34;;;;;;;10.15;5.32;;;17.90;99.90;;;;;;5031128;28;20029;-74
2021/07/05 06:18:01;;;;;;;8.30;4.40;;;17.90;99.90;;;;;;5030289;28;20017;-72
2021/07/05 06:20:27;;;;;;;11.25;5.57;;;17.90;99.90;;;;;;5029891;28;20030;-72
2021/07/05 06:22:55;;;;;;;12.98;5.10;;;17.90;99.90;;;;;;5030749;28;21207;-74
2021/07/05 06:25:21;;;;;;;11.75;4.78;;;18.00;99.90;;;;;;5031693;28;20116;-72
2021/07/05 06:27:47;;;;;;;9.38;4.90;;;18.00;99.90;;;;;;5028246;28;20089;-74
2021/07/05 06:30:14;;;;;;;8.30;4.88;;;18.10;99.90;;;;;;5027971;28;20038;-73
2021/07/05 06:32:40;;;;;;;8.30;4.90;;;18.10;99.90;;;;;;5032556;28;20040;-70
2021/07/05 06:35:07;;;;;;;10.23;6.07;;;18.20;99.90;;;;;;5033274;28;20551;-71
2021/07/05 06:37:33;;;;;;;13.02;5.78;;;18.20;99.90;;;;;;5032454;28;20386;-74
2021/07/05 06:39:58;;;;;;;10.00;4.82;;;18.20;99.90;;;;;;5032352;28;20037;-71
2021/07/05 06:42:24;;;;;;;11.13;4.88;;;18.20;99.90;;;;;;5029927;28;20045;-73
2021/07/05 06:44:50;;;;;;;14.00;5.03;;;18.10;99.90;;;;;;5008112;28;20049;-74
2021/07/05 06:47:20;;;;;;;10.10;5.13;;;18.00;99.90;;;;;;5028245;28;20037;-74
2021/07/05 06:49:46;;;;;;;8.85;4.97;;;18.00;99.90;;;;;;5032281;28;20048;-74
2021/07/05 06:52:12;;;;;;;11.13;6.38;;;17.90;99.90;;;;;;5032942;28;20025;-74
2021/07/05 06:54:37;;;;;;;9.40;5.43;;;18.00;99.90;;;;;;5026972;28;20030;-74
2021/07/05 06:57:04;;;;;;;13.07;6.22;;;18.00;99.90;;;;;;5032114;28;20469;-74
2021/07/05 06:59:30;;;;;;;8.95;5.38;;;17.90;99.90;;;;;;5032706;28;20052;-73
2021/07/05 07:01:55;;;;;;;10.95;4.70;;;18.00;99.90;;;;;;5034207;28;20477;-75
2021/07/05 07:04:21;;;;;;;9.80;5.82;;;17.90;99.90;;;;;;5031478;28;20072;-75
2021/07/05 07:06:49;;;;;;;9.50;5.25;;;18.00;99.90;;;;;;5034016;28;20053;-74
2021/07/05 07:09:16;;;;;;;13.75;4.90;;;18.00;99.90;;;;;;5026982;28;20045;-75
2021/07/05 07:11:42;;;;;;;20.13;11.82;;;17.90;99.90;;;;;;5019582;28;20087;-74
2021/07/05 07:14:08;;;;;;;10.10;5.60;;;18.00;99.90;;;;;;5027039;28;20021;-75
2021/07/05 07:16:40;;;;;;;13.35;5.68;;;18.00;99.90;;;;;;5029380;28;20034;-75
2021/07/05 07:19:18;;;;;;;13.80;5.43;;;18.00;99.90;;;;;;5032012;28;20167;-74
2021/07/05 07:21:50;;;;;;;13.57;5.78;;;18.20;99.90;;;;;;5030677;28;20108;-74
2021/07/05 07:24:17;;;;;;;;;;;18.20;99.90;;;;;;5033623;28;20022;-74
2021/07/05 07:26:43;;;;;;;12.82;5.47;;;18.20;99.90;;;;;;5028551;28;20024;-73
2021/07/05 07:29:08;;;;;;;11.68;5.78;;;18.20;99.90;;;;;;5028338;28;20104;-74
2021/07/05 07:31:35;;;;;;;13.50;5.82;;;18.30;99.90;;;;;;5031341;28;20521;-75
2021/07/05 07:34:01;;;;;;;7.50;5.93;;;18.20;99.90;;;;;;5031362;28;20636;-76
2021/07/05 07:36:26;;;;;;;8.15;5.38;;;18.10;99.90;;;;;;5030311;28;20108;-76
2021/07/05 07:38:56;;;;;;;9.77;4.72;;;18.10;99.90;;;;;;5031806;28;20047;-73
2021/07/05 07:41:23;;;;;;;12.77;6.10;;;18.00;99.90;;;;;;5030818;28;20473;-75
2021/07/05 07:43:49;;;;;;;12.93;5.65;;;18.10;99.90;;;;;;5026839;28;20450;-75
2021/07/05 07:46:16;;;;;;;10.98;5.28;;;18.10;99.90;;;;;;5031754;28;20022;-75
2021/07/05 07:48:41;;;;;;;11.50;5.70;;;18.10;99.90;;;;;;5031069;28;20072;-76
2021/07/05 07:51:07;;;;;;;11.80;5.35;;;18.10;99.90;;;;;;5028943;28;20655;-76
2021/07/05 07:53:32;;;;;;;10.80;5.47;;;18.20;99.90;;;;;;5031957;28;20030;-75
2021/07/05 07:55:59;;;;;;;9.07;5.97;;;18.10;99.90;;;;;;5027609;28;20100;-75
2021/07/05 07:58:28;;;;;;;12.13;5.20;;;18.10;99.90;;;;;;5029210;28;20021;-74
2021/07/05 08:00:53;;;;;;;8.75;5.13;;;18.10;99.90;;;;;;5028857;28;20406;-74
2021/07/05 08:03:19;;;;;;;9.82;5.00;;;18.20;99.90;;;;;;5028146;28;20025;-73
2021/07/05 08:05:45;;;;;;;9.88;5.22;;;18.00;99.90;;;;;;5031679;28;20030;-73
2021/07/05 08:08:12;;;;;;;8.40;5.10;;;18.10;99.90;;;;;;5028762;28;20117;-73
2021/07/05 08:10:38;;;;;;;13.20;5.43;;;18.10;99.90;;;;;;5026938;28;20026;-74
2021/07/05 08:13:05;;;;;;;8.48;4.05;;;18.20;99.90;;;;;;5029598;28;20378;-73
2021/07/05 08:15:31;;;;;;;7.40;3.95;;;18.10;99.90;;;;;;5024770;28;20052;-73
2021/07/05 08:17:56;;;;;;;10.82;4.68;;;18.10;99.90;;;;;;5028311;28;20474;-72
2021/07/05 08:20:22;;;;;;;14.63;6.50;;;18.00;99.90;;;;;;5031082;28;20083;-72
2021/07/05 08:22:50;;;;;;;18.52;9.90;;;18.10;99.90;;;;;;5031007;28;20005;-72
2021/07/05 08:25:15;;;;;;;11.77;4.72;;;18.10;99.90;;;;;;5031398;28;20033;-72
2021/07/05 08:27:41;;;;;;;9.45;4.57;;;18.00;99.90;;;;;;5021310;28;20441;-73
2021/07/05 08:30:08;;;;;;;12.25;4.75;;;18.00;99.90;;;;;;5023707;28;20112;-72
2021/07/05 08:32:35;;;;;;;13.18;4.35;;;18.10;99.90;;;;;;5031354;28;20138;-74
2021/07/05 08:35:04;;;;;;;9.82;4.57;;;18.10;99.90;;;;;;5029902;28;20067;-73
2021/07/05 08:37:30;;;;;;;7.90;4.00;;;18.10;99.90;;;;;;5030227;28;20065;-72
2021/07/05 08:39:55;;;;;;;8.13;4.95;;;18.10;99.90;;;;;;5025509;28;20569;-74
2021/07/05 08:42:23;;;;;;;7.40;3.97;;;18.00;99.90;;;;;;5028744;28;20021;-74
2021/07/05 08:44:50;;;;;;;13.52;5.18;;;18.00;99.90;;;;;;5028926;28;20026;-73
2021/07/05 08:47:18;;;;;;;8.48;4.75;;;18.00;99.90;;;;;;5030733;28;20104;-73
2021/07/05 08:49:48;;;;;;;9.75;4.97;;;18.00;99.90;;;;;;5035200;28;20025;-73
2021/07/05 08:52:14;;;;;;;10.07;5.38;;;18.00;99.90;;;;;;5029328;28;20033;-74
2021/07/05 08:54:41;;;;;;;9.57;3.90;;;18.00;99.90;;;;;;5028753;28;20397;-74
2021/07/05 08:57:25;;;;;;;10.00;4.45;;;17.80;99.90;;;;;;5027881;28;20053;-73
2021/07/05 08:59:51;;;;;;;7.32;3.63;;;17.80;99.90;;;;;;5043988;28;20083;-72
2021/07/05 09:02:16;;;;;;;8.50;4.10;;;18.00;99.90;;;;;;5027399;28;20057;-74
2021/07/05 09:04:42;;;;;;;7.55;4.25;;;18.00;99.90;;;;;;5022588;28;20402;-73
2021/07/05 09:07:08;;;;;;;9.63;4.65;;;17.90;99.90;;;;;;5028620;28;20196;-73
2021/07/05 09:09:35;;;;;;;8.73;4.18;;;17.90;99.90;;;;;;5027301;28;20096;-73
2021/07/05 09:12:08;;;;;;;10.52;4.68;;;18.00;99.90;;;;;;5030306;28;20025;-73
2021/07/05 09:14:35;;;;;;;7.20;4.70;;;18.00;99.90;;;;;;5026907;28;20498;-73
2021/07/05 09:17:09;;;;;;;10.82;5.22;;;18.00;99.90;;;;;;5026058;28;20122;-72
2021/07/05 09:19:37;;;;;;;9.70;4.30;;;18.00;99.90;;;;;;5027052;28;20159;-72
2021/07/05 09:22:11;;;;;;;8.77;4.60;;;18.10;99.90;;;;;;5030136;28;20440;-72
2021/07/05 09:24:43;;;;;;;11.02;5.35;;;17.90;99.90;;;;;;5029027;28;20454;-73
2021/07/05 09:27:10;;;;;;;;;;;18.10;99.90;;;;;;5022850;28;20036;-74
2021/07/05 09:29:38;;;;;;;9.80;5.15;;;18.10;99.90;;;;;;5031372;28;19905;-74
2021/07/05 09:32:06;;;;;;;9.40;4.80;;;18.20;99.90;;;;;;5029974;28;20053;-73
2021/07/05 09:34:43;;;;;;;6.70;4.07;;;18.30;99.90;;;;;;5027465;28;20056;-72
2021/07/05 09:37:22;;;;;;;9.68;5.50;;;18.30;99.90;;;;;;5027849;28;20030;-74
2021/07/05 09:40:06;;;;;;;11.32;5.22;;;18.20;99.90;;;;;;5024613;28;20021;-73
2021/07/05 09:42:38;;;;;;;6.25;4.63;;;18.10;99.90;;;;;;5043296;28;20072;-73
2021/07/05 09:45:23;;;;;;;8.75;4.40;;;18.10;99.90;;;;;;5027400;28;20026;-74
2021/07/05 09:48:14;;;;;;;9.48;4.60;;;18.20;99.90;;;;;;5029072;28;20037;-74
2021/07/05 09:50:40;;;;;;;7.43;4.80;;;18.20;99.90;;;;;;5025046;28;20405;-73
2021/07/05 09:53:30;;;;;;;5.55;4.07;;;18.40;99.90;;;;;;5028117;28;20021;-74
2021/07/05 09:56:15;;;;;;;9.35;4.57;;;18.40;99.90;;;;;;5024891;28;20040;-74
2021/07/05 09:58:41;;;;;;;6.97;4.32;;;18.50;99.90;;;;;;5026461;28;20033;-73
2021/07/05 10:01:07;;;;;;;12.55;5.10;;;18.60;99.90;;;;;;5029582;28;20037;-72
2021/07/05 10:03:35;;;;;;;11.88;4.85;;;18.60;99.90;;;;;;5029120;28;20413;-72
2021/07/05 10:06:20;;;;;;;5.68;3.95;;;18.60;99.90;;;;;;5028818;28;20017;-73
2021/07/05 10:08:47;;;;;;;5.07;3.42;;;18.60;99.90;;;;;;5032685;28;20104;-72
2021/07/05 10:11:13;;;;;;;6.20;3.60;;;18.70;99.90;;;;;;5032734;28;20029;-72
2021/07/05 10:13:39;;;;;;;7.78;3.83;;;18.70;99.90;;;;;;5030634;28;20525;-72
2021/07/05 10:16:12;;;;;;;8.52;3.83;;;18.70;99.90;;;;;;5030915;28;20049;-73
2021/07/05 10:18:38;;;;;;;7.18;3.53;;;18.70;99.90;;;;;;5028866;28;20075;-72
2021/07/05 10:21:04;;;;;;;8.65;3.47;;;18.70;99.90;;;;;;5032646;28;20087;-72
2021/07/05 10:23:31;;;;;;;6.40;3.90;;;18.80;99.90;;;;;;5033375;28;20501;-72
2021/07/05 10:25:56;;;;;;;9.80;4.63;;;18.90;99.90;;;;;;5032849;28;20053;-73
2021/07/05 10:28:22;;;;;;;6.53;4.00;;;18.90;99.90;;;;;;5034108;28;20017;-72
2021/07/05 10:30:50;;;;;;;7.40;4.13;;;18.80;99.90;;;;;;5032614;28;20017;-72
2021/07/05 10:33:16;;;;;;;5.85;3.70;;;18.90;99.90;;;;;;5031485;28;20044;-71
2021/07/05 10:35:48;;;;;;;6.03;3.00;;;18.90;99.90;;;;;;5033550;28;20432;-72
2021/07/05 10:38:14;;;;;;;7.38;3.15;;;18.70;99.90;;;;;;5027538;28;20497;-72
2021/07/05 10:40:45;;;;;;;9.15;4.40;;;18.80;99.90;;;;;;5031946;28;20056;-72
2021/07/05 10:43:15;;;;;;;8.10;4.10;;;18.90;99.90;;;;;;5034121;28;20045;-72
2021/07/05 10:45:47;;;;;;;10.32;4.93;;;18.80;99.90;;;;;;5032830;28;20018;-72
2021/07/05 10:48:16;;;;;;;4.90;3.50;;;18.80;99.90;;;;;;5032523;28;20022;-73
2021/07/05 10:50:42;;;;;;;6.35;3.70;;;18.60;99.90;;;;;;5033222;28;20104;-72
2021/07/05 10:53:13;;;;;;;7.82;4.45;;;18.60;99.90;;;;;;5032618;28;20032;-72
2021/07/05 10:55:40;;;;;;;11.27;5.65;;;18.70;99.90;;;;;;5033044;28;20026;-71
2021/07/05 10:58:15;;;;;;;4.93;3.85;;;18.70;99.90;;;;;;5027418;28;20116;-72
2021/07/05 11:00:50;;;;;;;8.68;4.68;;;18.70;99.90;;;;;;5027446;28;20025;-72
2021/07/05 11:03:37;;;;;;;9.20;5.75;;;18.60;99.90;;;;;;5029715;28;20032;-72
2021/07/05 11:06:08;;;;;;;8.82;5.30;;;18.80;99.90;;;;;;5032643;28;20018;-72
2021/07/05 11:08:44;;;;;;;7.97;5.72;;;18.70;99.90;;;;;;5032858;28;20025;-72
2021/07/05 11:11:25;;;;;;;8.65;5.88;;;18.80;99.90;;;;;;5031267;28;20018;-72
2021/07/05 11:14:14;;;;;;;10.80;5.40;;;18.90;99.90;;;;;;5031718;28;20028;-72
2021/07/05 11:17:12;;;;;;;8.23;5.53;;;18.90;99.90;;;;;;5027507;28;20583;-72
2021/07/05 11:20:10;;;;;;;9.40;5.82;;;18.90;99.90;;;;;;5029046;28;20106;-72
2021/07/05 11:22:38;;;;;;;12.63;5.40;;;18.90;99.90;;;;;;5028952;28;20462;-72
2021/07/05 11:25:22;;;;;;;9.77;5.72;;;19.00;99.90;;;;;;5033093;28;20023;-72
2021/07/05 11:27:55;;;;;;;9.80;5.82;;;19.00;99.90;;;;;;5032154;28;20036;-71
2021/07/05 11:30:44;;;;;;;8.27;5.35;;;19.10;99.90;;;;;;5033345;28;20052;-72
2021/07/05 11:33:09;;;;;;;9.30;5.82;;;19.00;99.90;;;;;;5027270;28;20045;-73
2021/07/05 11:35:45;;;;;;;8.95;6.05;;;18.90;99.90;;;;;;5028215;28;20038;-72
2021/07/05 11:38:33;;;;;;;10.57;5.90;;;18.90;99.90;;;;;;5031507;28;20022;-73
2021/07/05 11:41:06;;;;;;;10.88;6.07;;;19.00;99.90;;;;;;5031195;28;20116;-73
2021/07/05 11:43:43;;;;;;;8.35;5.18;;;18.90;99.90;;;;;;5025721;28;20025;-73
2021/07/05 11:46:09;;;;;;;14.52;6.20;;;18.80;99.90;;;;;;5031746;28;20017;-76
2021/07/05 11:48:41;;;;;;;9.68;5.90;;;18.80;99.90;;;;;;5029782;28;20017;-73
2021/07/05 11:51:17;;;;;;;8.27;5.63;;;18.80;99.90;;;;;;5031428;28;20492;-72
2021/07/05 11:53:48;;;;;;;9.82;5.63;;;18.80;99.90;;;;;;5027532;28;20040;-73
2021/07/05 11:56:25;;;;;;;8.43;5.50;;;18.80;99.90;;;;;;5031178;28;20029;-72
2021/07/05 11:58:51;;;;;;;12.00;6.28;;;18.90;99.90;;;;;;5024542;28;20420;-72
2021/07/05 12:01:17;;;;;;;16.45;6.75;;;18.90;99.90;;;;;;5029752;28;20028;-72
2021/07/05 12:03:56;;;;;;;9.70;6.13;;;18.90;99.90;;;;;;5030914;28;20055;-72
2021/07/05 12:06:22;;;;;;;10.80;6.82;;;19.10;99.90;;;;;;5029084;28;20033;-73
2021/07/05 12:08:57;;;;;;;9.93;5.88;;;19.10;99.90;;;;;;5031198;28;20018;-73
2021/07/05 12:11:32;;;;;;;8.70;6.15;;;19.20;99.90;;;;;;5029696;28;20381;-72
2021/07/05 12:14:06;;;;;;;10.50;6.50;;;19.30;99.90;;;;;;5030688;28;20044;-73
2021/07/05 12:16:32;;;;;;;10.25;5.20;;;19.20;99.90;;;;;;5029074;28;20037;-72
2021/07/05 12:18:59;;;;;;;8.98;3.83;;;19.10;99.90;;;;;;5027913;28;20022;-72
2021/07/05 12:21:33;;;;;;;7.57;4.30;;;19.20;99.90;;;;;;5028476;28;20136;-72
2021/07/05 12:24:25;;;;;;;3.75;2.95;;;19.30;99.90;;;;;;5028503;28;20014;-72
2021/07/05 12:26:55;;;;;;;6.15;3.67;;;19.50;99.90;;;;;;5030017;28;20071;-72
2021/07/05 12:30:23;;;;;;;3.78;2.22;;;20.00;99.90;;;;;;5025720;28;20060;-72
2021/07/05 12:32:38;;;;;;;2.67;1.95;;;20.00;99.90;;;;;;5032067;28;20048;-72
2021/07/05 12:35:11;;;;;;;5.80;2.33;;;20.00;99.90;;;;;;5024193;28;20045;-72
2021/07/05 12:37:50;;;;;;;5.68;2.25;;;19.90;99.90;;;;;;5020954;28;20029;-72
2021/07/05 12:40:21;;;;;;;3.45;2.38;;;20.10;99.90;;;;;;5030497;28;20108;-72
2021/07/05 12:42:50;;;;;;;4.22;2.35;;;20.60;99.90;;;;;;5027714;28;20024;-72
2021/07/05 12:45:25;;;;;;;2.85;2.33;;;20.60;99.90;;;;;;5028938;28;20033;-72
2021/07/05 12:48:09;;;;;;;7.63;2.50;;;20.50;99.90;;;;;;5032952;28;20029;-71
2021/07/05 12:50:41;;;;;;;4.47;2.38;;;20.60;99.90;;;;;;5029755;28;20104;-72